Pouce Coupe, Canada
Current Conditions -  °F | °C
As of 3:34 AM on Sunday 26 Oct 2014 (Local Time) from CYDQ Reporting Station
Light Snow Light Snow  
Wind Chill: 26°   Ceiling: 1600
Heat Index: 34°   Visibility: 1.7mi
Dew Point: 32°   Wind: 9mph
Humidity: 93%   Direction: 30°NNE
Pressure: 29.59"   Gusts: NA
Location:  55.72°N, 120.13°W
Report Text: CYDQ 260934Z AUTO 03008KT 1 3/4SM -SN SCT005 SCT010 BKN016 OVC021 01/00 A2959 RMK SLP049
Loading
Personal Weather Stations






























Interactive Weather Map
Tropical Storm Tracking
New forecast layout! Learn more

10-Day Weather Forecast

Advertisements
Track Severe Weather on mobile